sensor_id;sensor_type;location;lat;lon;timestamp;P1;durP1;ratioP1;P2;durP2;ratioP2
11000;SDS011;5553;48.506;8.870;2023-07-13T14:38:24;2.73;;;2.53;;
11000;SDS011;5553;48.506;8.870;2023-07-13T14:40:53;3.10;;;2.13;;
11000;SDS011;5553;48.506;8.870;2023-07-13T14:43:21;2.53;;;2.10;;
11000;SDS011;5553;48.506;8.870;2023-07-13T14:45:53;2.87;;;2.17;;
11000;SDS011;5553;48.506;8.870;2023-07-13T14:48:22;1.87;;;1.77;;
11000;SDS011;5553;48.506;8.870;2023-07-13T14:50:53;2.03;;;1.70;;
11000;SDS011;5553;48.506;8.870;2023-07-13T14:53:26;2.37;;;2.17;;
11000;SDS011;5553;48.506;8.870;2023-07-13T14:55:55;2.37;;;1.97;;
11000;SDS011;5553;48.506;8.870;2023-07-13T14:58:23;5.13;;;2.47;;
11000;SDS011;5553;48.506;8.870;2023-07-13T15:00:52;5.60;;;2.33;;
11000;SDS011;5553;48.506;8.870;2023-07-13T15:03:23;3.13;;;2.07;;
11000;SDS011;5553;48.506;8.870;2023-07-13T15:05:52;3.30;;;2.13;;
11000;SDS011;5553;48.506;8.870;2023-07-13T15:08:21;3.20;;;2.20;;
11000;SDS011;5553;48.506;8.870;2023-07-13T15:10:53;2.93;;;2.30;;
11000;SDS011;5553;48.506;8.870;2023-07-13T15:13:25;2.60;;;2.40;;
11000;SDS011;5553;48.506;8.870;2023-07-13T15:15:54;4.23;;;1.77;;
11000;SDS011;5553;48.506;8.870;2023-07-13T15:18:22;2.70;;;2.50;;
11000;SDS011;5553;48.506;8.870;2023-07-13T15:20:52;3.00;;;2.27;;
11000;SDS011;5553;48.506;8.870;2023-07-13T15:23:22;2.23;;;1.97;;
11000;SDS011;5553;48.506;8.870;2023-07-13T15:25:53;7.10;;;2.73;;
11000;SDS011;5553;48.506;8.870;2023-07-13T15:28:22;2.83;;;2.57;;
11000;SDS011;5553;48.506;8.870;2023-07-13T15:30:50;3.70;;;2.53;;
11000;SDS011;5553;48.506;8.870;2023-07-13T15:33:20;2.60;;;2.30;;
11000;SDS011;5553;48.506;8.870;2023-07-13T15:35:50;7.40;;;3.00;;
11000;SDS011;5553;48.506;8.870;2023-07-13T15:38:20;3.73;;;2.53;;
11000;SDS011;5553;48.506;8.870;2023-07-13T15:40:50;3.03;;;2.20;;
11000;SDS011;5553;48.506;8.870;2023-07-13T15:43:23;3.93;;;2.40;;
11000;SDS011;5553;48.506;8.870;2023-07-13T15:45:51;2.87;;;2.50;;
11000;SDS011;5553;48.506;8.870;2023-07-13T15:48:20;2.93;;;2.37;;
11000;SDS011;5553;48.506;8.870;2023-07-13T15:50:50;7.67;;;2.30;;
11000;SDS011;5553;48.506;8.870;2023-07-13T15:53:20;2.00;;;1.80;;
11000;SDS011;5553;48.506;8.870;2023-07-13T15:55:51;4.90;;;2.57;;
11000;SDS011;5553;48.506;8.870;2023-07-13T15:58:22;3.43;;;2.30;;
11000;SDS011;5553;48.506;8.870;2023-07-13T16:00:51;3.40;;;2.30;;
11000;SDS011;5553;48.506;8.870;2023-07-13T16:03:20;3.60;;;2.40;;
11000;SDS011;5553;48.506;8.870;2023-07-13T16:05:49;2.60;;;2.13;;
11000;SDS011;5553;48.506;8.870;2023-07-13T16:08:23;3.03;;;2.40;;
11000;SDS011;5553;48.506;8.870;2023-07-13T16:10:59;3.10;;;2.40;;
11000;SDS011;5553;48.506;8.870;2023-07-13T16:13:29;4.57;;;2.10;;
11000;SDS011;5553;48.506;8.870;2023-07-13T16:15:57;3.00;;;2.47;;
11000;SDS011;5553;48.506;8.870;2023-07-13T16:18:25;3.43;;;2.70;;
11000;SDS011;5553;48.506;8.870;2023-07-13T16:20:53;2.57;;;2.37;;
11000;SDS011;5553;48.506;8.870;2023-07-13T16:23:24;4.90;;;2.40;;
11000;SDS011;5553;48.506;8.870;2023-07-13T16:25:52;2.83;;;2.63;;
11000;SDS011;5553;48.506;8.870;2023-07-13T16:28:23;2.47;;;2.20;;
11000;SDS011;5553;48.506;8.870;2023-07-13T16:30:52;2.23;;;2.03;;
11000;SDS011;5553;48.506;8.870;2023-07-13T16:33:21;4.03;;;2.23;;
11000;SDS011;5553;48.506;8.870;2023-07-13T16:35:49;2.80;;;2.60;;
11000;SDS011;5553;48.506;8.870;2023-07-13T16:38:18;5.10;;;2.57;;
11000;SDS011;5553;48.506;8.870;2023-07-13T16:40:49;3.30;;;2.13;;
11000;SDS011;5553;48.506;8.870;2023-07-13T16:43:18;2.97;;;2.33;;
11000;SDS011;5553;48.506;8.870;2023-07-13T16:45:50;4.60;;;2.37;;
11000;SDS011;5553;48.506;8.870;2023-07-13T16:48:21;2.43;;;2.23;;
11000;SDS011;5553;48.506;8.870;2023-07-13T16:50:54;3.33;;;2.23;;
11000;SDS011;5553;48.506;8.870;2023-07-13T16:53:25;1.97;;;1.87;;
11000;SDS011;5553;48.506;8.870;2023-07-13T16:55:57;2.57;;;2.10;;
11000;SDS011;5553;48.506;8.870;2023-07-13T16:58:25;4.10;;;1.90;;
11000;SDS011;5553;48.506;8.870;2023-07-13T17:01:00;5.80;;;2.67;;
11000;SDS011;5553;48.506;8.870;2023-07-13T17:03:30;3.67;;;1.80;;
11000;SDS011;5553;48.506;8.870;2023-07-13T17:05:59;2.30;;;2.03;;
11000;SDS011;5553;48.506;8.870;2023-07-13T17:08:30;3.33;;;2.00;;
11000;SDS011;5553;48.506;8.870;2023-07-13T17:10:59;2.60;;;2.30;;
11000;SDS011;5553;48.506;8.870;2023-07-13T17:13:29;2.70;;;1.90;;
11000;SDS011;5553;48.506;8.870;2023-07-13T17:16:00;3.73;;;2.30;;
11000;SDS011;5553;48.506;8.870;2023-07-13T17:18:30;2.93;;;2.30;;
11000;SDS011;5553;48.506;8.870;2023-07-13T17:21:01;3.60;;;2.40;;
11000;SDS011;5553;48.506;8.870;2023-07-13T17:23:30;4.20;;;2.27;;
11000;SDS011;5553;48.506;8.870;2023-07-13T17:25:59;3.03;;;2.83;;
11000;SDS011;5553;48.506;8.870;2023-07-13T17:28:28;2.37;;;2.17;;
11000;SDS011;5553;48.506;8.870;2023-07-13T17:31:00;2.33;;;2.10;;
11000;SDS011;5553;48.506;8.870;2023-07-13T17:33:31;4.00;;;2.30;;
11000;SDS011;5553;48.506;8.870;2023-07-13T17:36:05;5.13;;;2.40;;
11000;SDS011;5553;48.506;8.870;2023-07-13T17:38:37;2.47;;;2.10;;
11000;SDS011;5553;48.506;8.870;2023-07-13T17:41:08;3.30;;;2.10;;
11000;SDS011;5553;48.506;8.870;2023-07-13T17:43:39;2.43;;;2.23;;
11000;SDS011;5553;48.506;8.870;2023-07-13T17:46:13;1.90;;;1.80;;
11000;SDS011;5553;48.506;8.870;2023-07-13T17:48:43;4.53;;;2.40;;
11000;SDS011;5553;48.506;8.870;2023-07-13T17:51:14;4.90;;;2.63;;
11000;SDS011;5553;48.506;8.870;2023-07-13T17:53:45;3.03;;;1.90;;
11000;SDS011;5553;48.506;8.870;2023-07-13T17:56:13;4.50;;;2.57;;
11000;SDS011;5553;48.506;8.870;2023-07-13T17:58:42;3.90;;;2.50;;
11000;SDS011;5553;48.506;8.870;2023-07-13T18:01:14;1.97;;;1.83;;
11000;SDS011;5553;48.506;8.870;2023-07-13T18:03:45;4.00;;;2.60;;
11000;SDS011;5553;48.506;8.870;2023-07-13T18:06:18;3.53;;;2.40;;
11000;SDS011;5553;48.506;8.870;2023-07-13T18:08:55;2.83;;;2.00;;
11000;SDS011;5553;48.506;8.870;2023-07-13T18:11:24;3.13;;;2.33;;
11000;SDS011;5553;48.506;8.870;2023-07-13T18:13:54;2.93;;;2.13;;
11000;SDS011;5553;48.506;8.870;2023-07-13T18:16:25;4.97;;;2.40;;
11000;SDS011;5553;48.506;8.870;2023-07-13T18:18:56;3.77;;;2.43;;
11000;SDS011;5553;48.506;8.870;2023-07-13T18:21:26;3.60;;;2.60;;
11000;SDS011;5553;48.506;8.870;2023-07-13T18:23:55;2.57;;;2.30;;
11000;SDS011;5553;48.506;8.870;2023-07-13T18:26:23;4.47;;;2.20;;
11000;SDS011;5553;48.506;8.870;2023-07-13T18:28:53;2.93;;;2.50;;
11000;SDS011;5553;48.506;8.870;2023-07-13T18:31:21;4.67;;;2.73;;
11000;SDS011;5553;48.506;8.870;2023-07-13T18:33:57;4.50;;;2.77;;
11000;SDS011;5553;48.506;8.870;2023-07-13T18:36:27;3.80;;;2.20;;
11000;SDS011;5553;48.506;8.870;2023-07-13T18:38:55;6.27;;;2.37;;
11000;SDS011;5553;48.506;8.870;2023-07-13T18:41:25;2.53;;;2.10;;
11000;SDS011;5553;48.506;8.870;2023-07-13T18:43:53;2.67;;;2.23;;
11000;SDS011;5553;48.506;8.870;2023-07-13T18:46:22;3.10;;;2.27;;
11000;SDS011;5553;48.506;8.870;2023-07-13T18:48:57;3.73;;;2.30;;
11000;SDS011;5553;48.506;8.870;2023-07-13T18:51:26;2.90;;;1.90;;
11000;SDS011;5553;48.506;8.870;2023-07-13T18:53:55;4.63;;;2.23;;
11000;SDS011;5553;48.506;8.870;2023-07-13T18:56:24;3.33;;;2.40;;
11000;SDS011;5553;48.506;8.870;2023-07-13T18:58:52;5.33;;;2.80;;
11000;SDS011;5553;48.506;8.870;2023-07-13T19:01:22;2.70;;;1.90;;
11000;SDS011;5553;48.506;8.870;2023-07-13T19:04:00;2.80;;;2.30;;
11000;SDS011;5553;48.506;8.870;2023-07-13T19:06:33;2.40;;;1.93;;
11000;SDS011;5553;48.506;8.870;2023-07-13T19:09:01;3.20;;;2.53;;
11000;SDS011;5553;48.506;8.870;2023-07-13T19:11:33;4.40;;;2.47;;
11000;SDS011;5553;48.506;8.870;2023-07-13T19:14:01;2.53;;;2.33;;
11000;SDS011;5553;48.506;8.870;2023-07-13T19:16:32;3.30;;;2.50;;
11000;SDS011;5553;48.506;8.870;2023-07-13T19:19:00;4.13;;;2.40;;
11000;SDS011;5553;48.506;8.870;2023-07-13T19:21:31;3.83;;;1.77;;
11000;SDS011;5553;48.506;8.870;2023-07-13T19:24:03;2.60;;;2.20;;
11000;SDS011;5553;48.506;8.870;2023-07-13T19:26:33;3.10;;;2.33;;
11000;SDS011;5553;48.506;8.870;2023-07-13T19:29:07;3.50;;;2.10;;
11000;SDS011;5553;48.506;8.870;2023-07-13T19:31:44;1.90;;;1.73;;
11000;SDS011;5553;48.506;8.870;2023-07-13T19:34:17;2.80;;;1.80;;
11000;SDS011;5553;48.506;8.870;2023-07-13T19:36:47;4.10;;;1.87;;
11000;SDS011;5553;48.506;8.870;2023-07-13T19:39:22;5.90;;;2.70;;
11000;SDS011;5553;48.506;8.870;2023-07-13T19:41:55;3.03;;;2.30;;
11000;SDS011;5553;48.506;8.870;2023-07-13T19:44:26;5.60;;;2.60;;
11000;SDS011;5553;48.506;8.870;2023-07-13T19:46:57;5.17;;;2.60;;
11000;SDS011;5553;48.506;8.870;2023-07-13T19:49:26;3.70;;;2.20;;
11000;SDS011;5553;48.506;8.870;2023-07-13T19:51:55;2.50;;;2.30;;
11000;SDS011;5553;48.506;8.870;2023-07-13T19:54:24;3.53;;;2.20;;
11000;SDS011;5553;48.506;8.870;2023-07-13T19:56:53;5.40;;;2.10;;
11000;SDS011;5553;48.506;8.870;2023-07-13T19:59:22;4.90;;;2.70;;
11000;SDS011;5553;48.506;8.870;2023-07-13T20:01:53;4.13;;;2.20;;
11000;SDS011;5553;48.506;8.870;2023-07-13T20:04:26;4.50;;;3.00;;
11000;SDS011;5553;48.506;8.870;2023-07-13T20:06:55;6.17;;;2.40;;
11000;SDS011;5553;48.506;8.870;2023-07-13T20:09:25;4.80;;;2.57;;
11000;SDS011;5553;48.506;8.870;2023-07-13T20:11:59;2.90;;;2.00;;
11000;SDS011;5553;48.506;8.870;2023-07-13T20:14:28;3.23;;;2.90;;
11000;SDS011;5553;48.506;8.870;2023-07-13T20:16:58;3.17;;;2.63;;
11000;SDS011;5553;48.506;8.870;2023-07-13T20:19:32;5.50;;;2.30;;
11000;SDS011;5553;48.506;8.870;2023-07-13T20:22:02;2.47;;;2.27;;
11000;SDS011;5553;48.506;8.870;2023-07-13T20:24:31;5.30;;;2.63;;
11000;SDS011;5553;48.506;8.870;2023-07-13T20:26:59;11.67;;;2.67;;
11000;SDS011;5553;48.506;8.870;2023-07-13T20:29:28;4.20;;;2.20;;
11000;SDS011;5553;48.506;8.870;2023-07-13T20:31:57;3.83;;;2.70;;
11000;SDS011;5553;48.506;8.870;2023-07-13T20:34:26;2.53;;;2.33;;
11000;SDS011;5553;48.506;8.870;2023-07-13T20:37:21;4.73;;;2.37;;
11000;SDS011;5553;48.506;8.870;2023-07-13T20:39:56;4.47;;;2.50;;
11000;SDS011;5553;48.506;8.870;2023-07-13T20:42:24;5.63;;;2.53;;
11000;SDS011;5553;48.506;8.870;2023-07-13T20:44:52;4.97;;;2.50;;
11000;SDS011;5553;48.506;8.870;2023-07-13T20:47:21;3.00;;;2.43;;
11000;SDS011;5553;48.506;8.870;2023-07-13T20:49:52;3.20;;;2.90;;
11000;SDS011;5553;48.506;8.870;2023-07-13T20:52:23;3.30;;;2.53;;
11000;SDS011;5553;48.506;8.870;2023-07-13T20:54:51;3.70;;;2.30;;
11000;SDS011;5553;48.506;8.870;2023-07-13T20:57:20;3.60;;;2.80;;
11000;SDS011;5553;48.506;8.870;2023-07-13T20:59:51;4.70;;;3.17;;
11000;SDS011;5553;48.506;8.870;2023-07-13T21:02:25;8.47;;;2.63;;
11000;SDS011;5553;48.506;8.870;2023-07-13T21:04:57;4.80;;;2.30;;
11000;SDS011;5553;48.506;8.870;2023-07-13T21:07:41;5.83;;;2.63;;
11000;SDS011;5553;48.506;8.870;2023-07-13T21:10:17;7.83;;;2.70;;
11000;SDS011;5553;48.506;8.870;2023-07-13T21:12:49;4.13;;;3.03;;
11000;SDS011;5553;48.506;8.870;2023-07-13T21:15:19;2.93;;;2.47;;
11000;SDS011;5553;48.506;8.870;2023-07-13T21:17:50;5.70;;;2.67;;
11000;SDS011;5553;48.506;8.870;2023-07-13T21:20:21;3.50;;;2.77;;
11000;SDS011;5553;48.506;8.870;2023-07-13T21:22:54;3.90;;;2.77;;
11000;SDS011;5553;48.506;8.870;2023-07-13T21:25:24;4.80;;;2.70;;
11000;SDS011;5553;48.506;8.870;2023-07-13T21:27:55;3.93;;;2.53;;
11000;SDS011;5553;48.506;8.870;2023-07-13T21:30:25;3.70;;;2.87;;
11000;SDS011;5553;48.506;8.870;2023-07-13T21:32:55;2.87;;;2.07;;
11000;SDS011;5553;48.506;8.870;2023-07-13T21:35:26;4.40;;;2.07;;
11000;SDS011;5553;48.506;8.870;2023-07-13T21:37:59;3.47;;;3.17;;
11000;SDS011;5553;48.506;8.870;2023-07-13T21:40:30;3.80;;;3.10;;
11000;SDS011;5553;48.506;8.870;2023-07-13T21:42:59;9.07;;;2.90;;
11000;SDS011;5553;48.506;8.870;2023-07-13T21:45:27;2.90;;;2.60;;
11000;SDS011;5553;48.506;8.870;2023-07-13T21:47:56;6.60;;;3.20;;
11000;SDS011;5553;48.506;8.870;2023-07-13T21:50:27;3.53;;;2.83;;
11000;SDS011;5553;48.506;8.870;2023-07-13T21:53:11;4.10;;;3.00;;
11000;SDS011;5553;48.506;8.870;2023-07-13T21:55:42;4.70;;;3.43;;
11000;SDS011;5553;48.506;8.870;2023-07-13T21:58:14;6.07;;;3.47;;
11000;SDS011;5553;48.506;8.870;2023-07-13T22:00:44;6.73;;;3.57;;
11000;SDS011;5553;48.506;8.870;2023-07-13T22:03:16;6.40;;;3.60;;
11000;SDS011;5553;48.506;8.870;2023-07-13T22:05:50;3.87;;;2.73;;
11000;SDS011;5553;48.506;8.870;2023-07-13T22:08:24;7.33;;;3.00;;
11000;SDS011;5553;48.506;8.870;2023-07-13T22:10:55;3.97;;;2.73;;
11000;SDS011;5553;48.506;8.870;2023-07-13T22:13:26;3.30;;;3.00;;
11000;SDS011;5553;48.506;8.870;2023-07-13T22:15:55;6.67;;;3.10;;
11000;SDS011;5553;48.506;8.870;2023-07-13T22:18:24;4.23;;;2.97;;
11000;SDS011;5553;48.506;8.870;2023-07-13T22:20:53;4.60;;;3.13;;
11000;SDS011;5553;48.506;8.870;2023-07-13T22:23:25;3.57;;;3.27;;
11000;SDS011;5553;48.506;8.870;2023-07-13T22:25:55;5.00;;;3.20;;
11000;SDS011;5553;48.506;8.870;2023-07-13T22:28:26;9.87;;;4.40;;
11000;SDS011;5553;48.506;8.870;2023-07-13T22:30:55;4.97;;;3.47;;
11000;SDS011;5553;48.506;8.870;2023-07-13T22:33:24;3.13;;;2.93;;
11000;SDS011;5553;48.506;8.870;2023-07-13T22:35:53;3.93;;;3.30;;
11000;SDS011;5553;48.506;8.870;2023-07-13T22:38:26;3.57;;;3.00;;
11000;SDS011;5553;48.506;8.870;2023-07-13T22:40:55;5.60;;;3.37;;
11000;SDS011;5553;48.506;8.870;2023-07-13T22:43:25;4.37;;;3.80;;
11000;SDS011;5553;48.506;8.870;2023-07-13T22:45:55;3.73;;;3.43;;
11000;SDS011;5553;48.506;8.870;2023-07-13T22:48:30;3.43;;;3.13;;
11000;SDS011;5553;48.506;8.870;2023-07-13T22:51:09;4.93;;;3.60;;
11000;SDS011;5553;48.506;8.870;2023-07-13T22:53:42;4.03;;;3.60;;
11000;SDS011;5553;48.506;8.870;2023-07-13T22:56:12;4.80;;;3.93;;
11000;SDS011;5553;48.506;8.870;2023-07-13T22:58:41;5.80;;;4.27;;
11000;SDS011;5553;48.506;8.870;2023-07-13T23:01:12;3.77;;;3.03;;
11000;SDS011;5553;48.506;8.870;2023-07-13T23:03:44;9.00;;;4.10;;
11000;SDS011;5553;48.506;8.870;2023-07-13T23:06:15;7.90;;;4.07;;
11000;SDS011;5553;48.506;8.870;2023-07-13T23:08:48;4.80;;;3.63;;
11000;SDS011;5553;48.506;8.870;2023-07-13T23:11:17;6.13;;;4.27;;
11000;SDS011;5553;48.506;8.870;2023-07-13T23:13:47;3.53;;;3.23;;
11000;SDS011;5553;48.506;8.870;2023-07-13T23:16:17;4.63;;;3.77;;
11000;SDS011;5553;48.506;8.870;2023-07-13T23:18:47;4.53;;;4.13;;
11000;SDS011;5553;48.506;8.870;2023-07-13T23:21:17;5.47;;;3.73;;
11000;SDS011;5553;48.506;8.870;2023-07-13T23:23:50;5.60;;;3.97;;
11000;SDS011;5553;48.506;8.870;2023-07-13T23:26:21;9.40;;;3.80;;
11000;SDS011;5553;48.506;8.870;2023-07-13T23:28:51;7.90;;;3.40;;
11000;SDS011;5553;48.506;8.870;2023-07-13T23:31:21;3.80;;;3.50;;
11000;SDS011;5553;48.506;8.870;2023-07-13T23:33:51;3.97;;;3.40;;
11000;SDS011;5553;48.506;8.870;2023-07-13T23:36:21;7.33;;;3.80;;
11000;SDS011;5553;48.506;8.870;2023-07-13T23:38:53;8.53;;;4.20;;
11000;SDS011;5553;48.506;8.870;2023-07-13T23:41:22;4.30;;;3.80;;
11000;SDS011;5553;48.506;8.870;2023-07-13T23:43:51;4.20;;;3.80;;
11000;SDS011;5553;48.506;8.870;2023-07-13T23:46:21;6.30;;;3.50;;
11000;SDS011;5553;48.506;8.870;2023-07-13T23:48:54;5.57;;;3.60;;
11000;SDS011;5553;48.506;8.870;2023-07-13T23:51:27;12.73;;;3.53;;
11000;SDS011;5553;48.506;8.870;2023-07-13T23:53:58;3.80;;;3.50;;
11000;SDS011;5553;48.506;8.870;2023-07-13T23:56:28;6.40;;;3.60;;
11000;SDS011;5553;48.506;8.870;2023-07-13T23:58:57;4.10;;;3.73;;
